.
WxDataArchive / Data Records for 2014-10-11
2014-10-10 October 2014 2014-10-12

Data Records for Saturday, 11 October 2014

Time	Temp	Chill	HIndex	Humid	Dewpt	 Wind 	HiWind	WindDir	Rain 	Barom
-----	----	-----	------	-----	-----	------	------	-------	-----	-----
00:00	46.5	46.5	46.5	77	39.7	0	0	---	0.00	30.123 
00:05	46.4	46.4	46.4	78	39.9	0	0	---	0.00	30.123 
00:10	46.4	46.4	46.4	78	39.9	0	0	---	0.00	30.123 
00:15	46.2	46.2	46.2	78	39.7	0	0	---	0.00	30.124 
00:20	46.2	46.2	46.2	78	39.7	0	0	---	0.00	30.124 
00:25	46.2	46.2	46.2	78	39.7	0	0	---	0.00	30.124 
00:30	46.2	46.2	46.2	77	39.4	0	0	---	0.00	30.119 
00:35	46.2	46.2	46.2	77	39.4	0	0	---	0.00	30.119 
00:40	46.2	46.2	46.2	77	39.4	0	0	---	0.00	30.119 
00:45	46.2	46.2	46.2	77	39.4	0	0	---	0.00	30.113 
00:50	46.2	46.2	46.2	76	39.1	0	2	90	0.00	30.113 
00:55	46.2	46.2	46.2	76	39.1	0	0	---	0.00	30.113 
01:00	46.2	46.2	46.2	76	39.1	0	0	---	0.00	30.114 
01:05	46.1	46.1	46.1	75	38.6	0	0	---	0.00	30.114 
01:10	46.1	46.1	46.1	75	38.6	0	0	---	0.00	30.114 
01:15	46.0	46.0	46.0	75	38.5	0	0	---	0.00	30.114 
01:20	45.8	45.8	45.8	75	38.3	0	0	---	0.00	30.114 
01:25	45.7	45.7	45.7	75	38.2	0	0	---	0.00	30.114 
01:30	45.7	45.7	45.7	75	38.2	0	0	---	0.00	30.106 
01:35	45.5	45.5	45.5	75	38.0	0	0	---	0.00	30.106 
01:40	45.4	45.4	45.4	75	37.9	0	2	90	0.00	30.106 
01:45	45.2	45.2	45.2	74	37.4	0	2	90	0.00	30.104 
01:50	45.1	45.1	45.1	74	37.3	0	0	---	0.00	30.104 
01:55	44.9	44.9	44.9	74	37.1	0	0	---	0.00	30.104 
02:00	44.8	44.8	44.8	75	37.4	0	0	---	0.00	30.100 
02:05	44.5	44.5	44.5	75	37.1	0	0	---	0.00	30.100 
02:10	44.2	44.2	44.2	75	36.8	0	0	---	0.00	30.100 
02:15	43.9	43.9	43.9	76	36.8	0	0	---	0.00	30.104 
02:20	43.6	43.6	43.6	76	36.5	0	0	---	0.00	30.104 
02:25	43.5	43.5	43.5	77	36.8	0	0	---	0.00	30.104 
02:30	43.2	43.2	43.2	77	36.5	0	0	---	0.00	30.105 
02:35	43.1	43.1	43.1	77	36.4	0	0	---	0.00	30.105 
02:40	42.8	42.8	42.8	78	36.4	0	0	---	0.00	30.105 
02:45	42.6	42.6	42.6	78	36.2	0	0	---	0.00	30.106 
02:50	42.5	42.5	42.5	79	36.5	0	0	---	0.00	30.106 
02:55	42.3	42.3	42.3	79	36.3	0	0	---	0.00	30.106 
03:00	42.2	42.2	42.2	80	36.5	0	0	---	0.00	30.104 
03:05	41.9	41.9	41.9	80	36.2	0	0	---	0.00	30.104 
03:10	41.8	41.8	41.8	80	36.1	0	0	---	0.00	30.104 
03:15	41.6	41.6	41.6	81	36.2	0	0	---	0.00	30.106 
03:20	41.5	41.5	41.5	81	36.1	0	0	---	0.00	30.106 
03:25	41.3	41.3	41.3	81	35.9	0	0	---	0.00	30.106 
03:30	41.3	41.3	41.3	81	35.9	0	0	---	0.00	30.107 
03:35	41.2	41.2	41.2	81	35.8	0	0	---	0.00	30.107 
03:40	41.1	41.1	41.1	82	36.0	0	0	---	0.00	30.107 
03:45	40.9	40.9	40.9	82	35.8	0	0	---	0.00	30.113 
03:50	40.8	40.8	40.8	82	35.7	0	0	---	0.00	30.113 
03:55	40.6	40.6	40.6	82	35.5	0	0	---	0.00	30.113 
04:00	40.5	40.5	40.5	83	35.8	0	0	---	0.00	30.119 
04:05	40.3	40.3	40.3	83	35.6	0	0	---	0.00	30.119 
04:10	40.2	40.2	40.2	83	35.5	0	0	---	0.00	30.119 
04:15	40.1	40.1	40.1	83	35.4	0	0	---	0.00	30.120 
04:20	39.9	39.9	39.9	84	35.5	0	0	---	0.00	30.120 
04:25	39.8	39.8	39.8	84	35.4	0	0	---	0.00	30.120 
04:30	39.6	39.6	39.6	84	35.2	0	0	---	0.00	30.126 
04:35	39.5	39.5	39.5	85	35.4	0	0	---	0.00	30.126 
04:40	39.2	39.2	39.2	85	35.1	0	0	---	0.00	30.126 
04:45	39.2	39.2	39.2	85	35.1	0	0	---	0.00	30.131 
04:50	39.2	39.2	39.2	85	35.1	0	0	---	0.00	30.131 
04:55	39.2	39.2	39.2	86	35.4	0	0	---	0.00	30.131 
05:00	39.2	39.2	39.2	86	35.4	0	1	90	0.00	30.138 
05:05	39.3	39.3	39.3	86	35.5	0	0	---	0.00	30.138 
05:10	39.3	39.3	39.3	86	35.5	0	0	---	0.00	30.138 
05:15	39.3	39.3	39.3	85	35.2	0	0	---	0.00	30.138 
05:20	39.3	39.3	39.3	85	35.2	0	0	---	0.00	30.138 
05:25	39.1	39.1	39.1	85	35.0	0	0	---	0.00	30.138 
05:30	38.9	38.9	38.9	85	34.8	0	0	---	0.00	30.138 
05:35	38.8	38.8	38.8	85	34.7	0	0	---	0.00	30.138 
05:40	38.6	38.6	38.6	85	34.5	0	0	---	0.00	30.138 
05:45	38.5	38.5	38.5	85	34.4	0	0	---	0.00	30.135 
05:50	38.5	38.5	38.5	86	34.7	0	0	---	0.00	30.135 
05:55	38.3	38.3	38.3	86	34.5	0	0	---	0.00	30.135 
06:00	38.3	38.3	38.3	86	34.5	0	0	---	0.00	30.139 
06:05	38.2	38.2	38.2	86	34.4	0	0	---	0.00	30.139 
06:10	38.2	38.2	38.2	86	34.4	0	0	---	0.00	30.139 
06:15	38.2	38.2	38.2	86	34.4	0	0	---	0.00	30.140 
06:20	38.0	38.0	38.0	86	34.2	0	0	---	0.00	30.140 
06:25	38.0	38.0	38.0	87	34.5	0	0	---	0.00	30.140 
06:30	37.9	37.9	37.9	87	34.4	0	0	---	0.00	30.138 
06:35	37.9	37.9	37.9	87	34.4	0	0	---	0.00	30.138 
06:40	37.9	37.9	37.9	87	34.4	0	0	---	0.00	30.138 
06:45	37.8	37.8	37.8	87	34.3	0	0	---	0.00	30.141 
06:50	37.8	37.8	37.8	87	34.3	0	0	---	0.00	30.141 
06:55	37.8	37.8	37.8	87	34.3	0	0	---	0.00	30.141 
07:00	37.8	37.8	37.8	87	34.3	0	0	---	0.00	30.158 
07:05	37.6	37.6	37.6	87	34.1	0	0	---	0.00	30.158 
07:10	37.5	37.5	37.5	87	34.0	0	0	---	0.00	30.158 
07:15	37.3	37.3	37.3	87	33.8	0	0	---	0.00	30.169 
07:20	37.2	37.2	37.2	87	33.7	0	0	---	0.00	30.169 
07:25	37.0	37.0	37.0	87	33.5	0	0	---	0.00	30.169 
07:30	36.9	36.9	36.9	87	33.4	0	0	---	0.00	30.177 
07:35	36.8	36.8	36.8	87	33.3	0	0	---	0.00	30.177 
07:40	36.5	36.5	36.5	88	33.3	0	0	---	0.00	30.177 
07:45	36.3	36.3	36.3	88	33.1	0	0	---	0.00	30.191 
07:50	36.2	36.2	36.2	88	33.0	0	0	---	0.00	30.191 
07:55	36.0	36.0	36.0	88	32.8	0	0	---	0.00	30.191 
08:00	36.0	36.0	36.0	88	32.8	0	0	---	0.00	30.195 
08:05	36.0	36.0	36.0	89	33.1	0	0	---	0.00	30.195 
08:10	36.0	36.0	36.0	89	33.1	0	0	---	0.00	30.195 
08:15	36.0	36.0	36.0	89	33.1	0	0	---	0.00	30.206 
08:20	36.2	36.2	36.2	89	33.3	0	0	---	0.00	30.206 
08:25	36.2	36.2	36.2	89	33.3	0	0	---	0.00	30.206 
08:30	36.5	36.5	36.5	90	33.9	0	0	---	0.00	30.203 
08:35	36.6	36.6	36.6	90	33.9	0	0	---	0.00	30.203 
08:40	36.9	36.9	36.9	90	34.2	0	0	---	0.00	30.203 
08:45	37.5	37.5	37.5	91	35.1	0	0	---	0.00	30.209 
08:50	38.0	38.0	38.0	91	35.6	0	0	---	0.00	30.209 
08:55	38.5	38.5	38.5	91	36.1	0	0	---	0.00	30.209 
09:00	39.1	39.1	39.1	90	36.4	0	1	90	0.00	30.219 
09:05	39.6	39.6	39.6	88	36.3	0	1	90	0.00	30.219 
09:10	40.3	40.3	40.3	87	36.7	0	1	90	0.00	30.219 
09:15	40.9	40.9	40.9	85	36.7	0	3	90	0.00	30.215 
09:20	41.5	41.5	41.5	85	37.3	0	1	90	0.00	30.215 
09:25	41.9	41.9	41.9	83	37.1	0	1	90	0.00	30.215 
09:30	42.5	42.5	42.5	82	37.4	0	1	90	0.00	30.215 
09:35	42.9	42.9	42.9	81	37.5	0	2	90	0.00	30.215 
09:40	43.3	43.3	43.3	79	37.2	0	1	90	0.00	30.215 
09:45	43.9	43.9	43.9	79	37.8	0	1	90	0.00	30.218 
09:50	44.5	44.5	44.5	77	37.7	0	1	90	0.00	30.218 
09:55	45.1	45.1	45.1	76	38.0	0	1	90	0.00	30.218 
10:00	45.5	45.5	45.5	75	38.0	0	1	90	0.00	30.218 
10:05	46.0	46.0	46.0	73	37.8	0	1	90	0.00	30.218 
10:10	46.4	46.4	46.4	72	37.9	0	1	90	0.00	30.218 
10:15	47.0	47.0	47.0	70	37.7	0	1	90	0.00	30.213 
10:20	47.6	47.6	47.6	71	38.7	0	1	90	0.00	30.213 
10:25	48.2	48.2	48.2	69	38.5	1	4	90	0.00	30.213 
10:30	48.6	48.6	48.6	69	38.9	1	3	90	0.00	30.213 
10:35	49.1	49.1	49.1	69	39.4	1	2	90	0.00	30.213 
10:40	49.5	49.5	49.5	67	39.0	1	4	90	0.00	30.213 
10:45	49.8	49.8	49.8	66	38.9	1	4	90	0.00	30.213 
10:50	49.9	49.9	49.9	68	39.8	0	3	112	0.00	30.213 
10:55	50.2	50.2	50.2	69	40.4	1	5	112	0.00	30.213 
11:00	50.7	50.7	50.7	66	39.8	1	4	112	0.00	30.212 
11:05	51.0	51.0	51.0	65	39.7	1	3	90	0.00	30.212 
11:10	51.1	51.1	51.1	65	39.7	1	3	90	0.00	30.212 
11:15	51.1	51.1	51.1	62	38.5	2	5	112	0.00	30.213 
11:20	51.6	51.6	51.6	64	39.8	1	3	112	0.00	30.213 
11:25	52.0	52.0	52.0	61	39.0	1	6	112	0.00	30.213 
11:30	52.3	52.3	52.3	60	38.8	1	3	112	0.00	30.220 
11:35	52.5	52.5	52.5	59	38.6	1	2	112	0.00	30.220 
11:40	52.6	52.6	52.6	59	38.7	1	5	135	0.00	30.220 
11:45	52.8	52.8	52.8	58	38.4	1	2	112	0.00	30.222 
11:50	52.9	52.9	52.9	58	38.5	0	2	112	0.00	30.222 
11:55	53.2	53.2	53.2	58	38.8	1	4	90	0.00	30.222 
12:00	53.6	53.6	53.6	57	38.7	1	4	90	0.00	30.222 
12:05	53.9	53.9	53.9	56	38.6	0	2	90	0.00	30.222 
12:10	54.2	54.2	54.2	56	38.8	0	2	90	0.00	30.222 
12:15	54.5	54.5	54.5	54	38.2	1	3	90	0.00	30.225 
12:20	54.8	54.8	54.8	55	38.9	1	3	68	0.00	30.225 
12:25	55.1	55.1	55.1	52	37.8	1	3	68	0.00	30.225 
12:30	55.1	55.1	55.1	51	37.3	2	7	112	0.00	30.225 
12:35	55.0	55.0	55.0	50	36.7	1	5	112	0.00	30.225 
12:40	55.1	55.1	55.1	49	36.3	1	5	112	0.00	30.225 
12:45	55.3	55.3	55.3	49	36.5	1	3	68	0.00	30.224 
12:50	55.6	55.6	55.6	51	37.8	0	2	68	0.00	30.224 
12:55	56.0	56.0	56.0	50	37.6	0	2	68	0.00	30.224 
13:00	55.9	55.9	55.9	48	36.5	2	5	68	0.00	30.221 
13:05	55.7	55.7	55.7	48	36.3	1	4	68	0.00	30.221 
13:10	55.9	55.9	55.9	50	37.5	0	2	135	0.00	30.221 
13:15	56.0	56.0	56.0	47	36.1	1	4	135	0.00	30.221 
13:20	56.0	56.0	56.0	49	37.1	1	4	90	0.00	30.221 
13:25	55.9	55.9	55.9	48	36.5	1	4	90	0.00	30.221 
13:30	55.7	55.7	55.7	52	38.3	1	4	315	0.00	30.212 
13:35	56.0	56.0	56.0	48	36.6	1	4	202	0.00	30.212 
13:40	56.0	56.0	56.0	45	35.0	1	5	90	0.00	30.212 
13:45	56.0	56.0	56.0	49	37.1	1	4	68	0.00	30.209 
13:50	56.2	56.2	56.2	47	36.2	1	5	158	0.00	30.209 
13:55	56.2	56.2	56.2	42	33.4	1	5	180	0.00	30.209 
14:00	56.3	56.3	56.3	43	34.1	1	5	112	0.00	30.199 
14:05	56.3	56.3	56.3	42	33.5	2	6	90	0.00	30.199 
14:10	56.2	56.2	56.2	43	34.0	2	5	112	0.00	30.199 
14:15	56.2	56.2	56.2	44	34.6	1	5	135	0.00	30.199 
14:20	56.3	56.3	56.3	45	35.2	1	5	90	0.00	30.199 
14:25	56.3	56.3	56.3	45	35.2	2	4	90	0.00	30.199 
14:30	56.3	56.3	56.3	43	34.1	1	4	68	0.00	30.198 
14:35	56.5	56.5	56.5	43	34.3	1	4	135	0.00	30.198 
14:40	56.5	56.5	56.5	44	34.9	1	4	135	0.00	30.198 
14:45	56.5	56.5	56.5	45	35.4	1	4	90	0.00	30.194 
14:50	56.5	56.5	56.5	43	34.3	1	3	90	0.00	30.194 
14:55	56.6	56.6	56.6	44	34.9	1	3	0	0.00	30.194 
15:00	56.7	56.7	56.7	43	34.5	1	4	90	0.00	30.185 
15:05	56.7	56.7	56.7	43	34.5	1	4	135	0.00	30.185 
15:10	56.7	56.7	56.7	42	33.9	1	4	90	0.00	30.185 
15:15	56.7	56.7	56.7	42	33.9	1	4	90	0.00	30.182 
15:20	56.7	56.7	56.7	41	33.3	1	4	90	0.00	30.182 
15:25	56.7	56.7	56.7	43	34.5	1	3	90	0.00	30.182 
15:30	56.7	56.7	56.7	41	33.3	2	6	90	0.00	30.182 
15:35	56.9	56.9	56.9	43	34.6	0	2	90	0.00	30.182 
15:40	56.9	56.9	56.9	41	33.4	0	2	90	0.00	30.182 
15:45	56.9	56.9	56.9	41	33.4	1	6	90	0.00	30.182 
15:50	57.0	57.0	57.0	43	34.7	1	5	90	0.00	30.182 
15:55	56.9	56.9	56.9	41	33.4	1	3	90	0.00	30.182 
16:00	56.7	56.7	56.7	42	33.9	1	7	90	0.00	30.182 
16:05	56.7	56.7	56.7	40	32.7	1	5	112	0.00	30.182 
16:10	56.7	56.7	56.7	42	33.9	0	3	112	0.00	30.182 
16:15	56.7	56.7	56.7	42	33.9	0	3	112	0.00	30.178 
16:20	56.9	56.9	56.9	43	34.6	1	3	112	0.00	30.178 
16:25	56.9	56.9	56.9	42	34.0	1	3	112	0.00	30.178 
16:30	56.9	56.9	56.9	40	32.8	1	3	68	0.00	30.178 
16:35	56.9	56.9	56.9	40	32.8	0	3	68	0.00	30.178 
16:40	56.7	56.7	56.7	38	31.4	1	4	68	0.00	30.178 
16:45	56.7	56.7	56.7	39	32.0	1	6	90	0.00	30.174 
16:50	56.7	56.7	56.7	40	32.7	1	5	90	0.00	30.174 
16:55	56.7	56.7	56.7	40	32.7	1	4	90	0.00	30.174 
17:00	56.7	56.7	56.7	39	32.0	1	3	90	0.00	30.177 
17:05	56.7	56.7	56.7	38	31.4	2	7	90	0.00	30.177 
17:10	56.7	56.7	56.7	39	32.0	1	5	90	0.00	30.177 
17:15	56.7	56.7	56.7	38	31.4	1	3	90	0.00	30.170 
17:20	56.6	56.6	56.6	38	31.3	2	5	90	0.00	30.170 
17:25	56.6	56.6	56.6	39	31.9	0	3	90	0.00	30.170 
17:30	56.5	56.5	56.5	38	31.2	1	4	90	0.00	30.168 
17:35	56.5	56.5	56.5	39	31.8	1	4	90	0.00	30.168 
17:40	56.3	56.3	56.3	40	32.3	0	2	90	0.00	30.168 
17:45	56.2	56.2	56.2	41	32.8	0	1	90	0.00	30.169 
17:50	56.2	56.2	56.2	40	32.2	0	2	90	0.00	30.169 
17:55	56.2	56.2	56.2	41	32.8	0	3	90	0.00	30.169 
18:00	56.0	56.0	56.0	40	32.0	1	3	68	0.00	30.168 
18:05	56.0	56.0	56.0	40	32.0	1	6	68	0.00	30.168 
18:10	55.9	55.9	55.9	41	32.5	0	2	68	0.00	30.168 
18:15	55.7	55.7	55.7	41	32.4	1	3	68	0.00	30.170 
18:20	55.4	55.4	55.4	41	32.1	1	3	68	0.00	30.170 
18:25	55.3	55.3	55.3	42	32.6	1	4	90	0.00	30.170 
18:30	55.1	55.1	55.1	43	33.0	0	2	90	0.00	30.175 
18:35	54.8	54.8	54.8	43	32.7	0	3	90	0.00	30.175 
18:40	54.5	54.5	54.5	43	32.5	0	1	90	0.00	30.175 
18:45	54.2	54.2	54.2	44	32.8	0	1	90	0.00	30.179 
18:50	53.9	53.9	53.9	46	33.6	0	1	90	0.00	30.179 
18:55	53.6	53.6	53.6	47	33.9	0	1	90	0.00	30.179 
19:00	53.2	53.2	53.2	48	34.0	0	0	---	0.00	30.185 
19:05	52.6	52.6	52.6	48	33.5	0	0	---	0.00	30.185 
19:10	52.0	52.0	52.0	50	33.9	0	0	---	0.00	30.185 
19:15	51.4	51.4	51.4	51	33.9	0	0	---	0.00	30.190 
19:20	50.8	50.8	50.8	53	34.3	0	0	---	0.00	30.190 
19:25	50.1	50.1	50.1	53	33.6	0	0	---	0.00	30.190 
19:30	49.5	49.5	49.5	55	34.0	0	0	---	0.00	30.193 
19:35	48.9	48.9	48.9	56	33.9	0	0	---	0.00	30.193 
19:40	48.5	48.5	48.5	58	34.4	0	0	---	0.00	30.193 
19:45	48.0	48.0	48.0	59	34.4	0	0	---	0.00	30.197 
19:50	47.6	47.6	47.6	61	34.8	0	0	---	0.00	30.197 
19:55	47.1	47.1	47.1	64	35.6	0	0	---	0.00	30.197 
20:00	46.7	46.7	46.7	64	35.2	0	0	---	0.00	30.202 
20:05	46.2	46.2	46.2	65	35.1	0	0	---	0.00	30.202 
20:10	45.8	45.8	45.8	65	34.7	0	0	---	0.00	30.202 
20:15	45.2	45.2	45.2	65	34.1	0	0	---	0.00	30.204 
20:20	44.9	44.9	44.9	66	34.2	0	0	---	0.00	30.204 
20:25	44.6	44.6	44.6	67	34.3	0	0	---	0.00	30.204 
20:30	44.3	44.3	44.3	67	34.0	0	0	---	0.00	30.208 
20:35	44.1	44.1	44.1	67	33.9	0	0	---	0.00	30.208 
20:40	43.9	43.9	43.9	68	34.0	0	0	---	0.00	30.208 
20:45	43.6	43.6	43.6	69	34.1	0	0	---	0.00	30.208 
20:50	43.3	43.3	43.3	70	34.2	0	0	---	0.00	30.208 
20:55	43.2	43.2	43.2	70	34.1	0	0	---	0.00	30.208 
21:00	42.9	42.9	42.9	70	33.8	0	0	---	0.00	30.208 
21:05	42.8	42.8	42.8	70	33.7	0	0	---	0.00	30.208 
21:10	42.6	42.6	42.6	71	33.9	0	0	---	0.00	30.208 
21:15	42.3	42.3	42.3	72	33.9	0	0	---	0.00	30.197 
21:20	42.2	42.2	42.2	72	33.8	0	0	---	0.00	30.197 
21:25	42.1	42.1	42.1	72	33.7	0	0	---	0.00	30.197 
21:30	41.9	41.9	41.9	72	33.5	0	0	---	0.00	30.203 
21:35	41.8	41.8	41.8	73	33.8	0	0	---	0.00	30.203 
21:40	41.6	41.6	41.6	73	33.6	0	0	---	0.00	30.203 
21:45	41.3	41.3	41.3	73	33.3	0	0	---	0.00	30.206 
21:50	41.2	41.2	41.2	74	33.6	0	0	---	0.00	30.206 
21:55	40.9	40.9	40.9	76	33.9	0	0	---	0.00	30.206 
22:00	40.8	40.8	40.8	77	34.2	0	0	---	0.00	30.207 
22:05	40.6	40.6	40.6	77	34.0	0	0	---	0.00	30.207 
22:10	40.5	40.5	40.5	79	34.5	0	0	---	0.00	30.207 
22:15	40.3	40.3	40.3	80	34.6	0	0	---	0.00	30.202 
22:20	40.2	40.2	40.2	81	34.8	0	0	---	0.00	30.202 
22:25	40.1	40.1	40.1	81	34.7	0	0	---	0.00	30.202 
22:30	39.9	39.9	39.9	81	34.6	0	0	---	0.00	30.202 
22:35	39.6	39.6	39.6	81	34.3	0	0	---	0.00	30.202 
22:40	39.5	39.5	39.5	81	34.2	0	0	---	0.00	30.202 
22:45	39.3	39.3	39.3	81	34.0	0	0	---	0.00	30.199 
22:50	39.2	39.2	39.2	82	34.2	0	0	---	0.00	30.199 
22:55	39.1	39.1	39.1	81	33.8	0	0	---	0.00	30.199 
23:00	38.9	38.9	38.9	81	33.6	0	0	---	0.00	30.198 
23:05	38.8	38.8	38.8	82	33.8	0	0	---	0.00	30.198 
23:10	38.6	38.6	38.6	82	33.6	0	0	---	0.00	30.198 
23:15	38.5	38.5	38.5	82	33.5	0	0	---	0.00	30.194 
23:20	38.3	38.3	38.3	82	33.3	0	0	---	0.00	30.194 
23:25	38.2	38.2	38.2	83	33.5	0	0	---	0.00	30.194 
23:30	38.0	38.0	38.0	83	33.3	0	0	---	0.00	30.192 
23:35	37.9	37.9	37.9	83	33.2	0	0	---	0.00	30.192 
23:40	37.8	37.8	37.8	83	33.1	0	0	---	0.00	30.192 
23:45	37.8	37.8	37.8	84	33.4	0	0	---	0.00	30.190 
23:50	37.6	37.6	37.6	84	33.2	0	0	---	0.00	30.190 
23:55	37.6	37.6	37.6	84	33.2	0	0	---	0.00	30.190 

CoCoRaHS
IN-AL-39
A2 Web Hosting
Creative Commons License
GoDaddy
search engine by freefind advanced

loaded 2018-11-20 02:26:05 • last modified 2010-11-18 10:43:29
Privacy PolicyDisclaimer
• wx.awcolley.com is powered by PmWiki v.2002016 •
• all content (unless otherwise noted) © 2018 A W Colley